Portada
METAR-TAF:

METAR-TAF

Aeroports :

Iakutsk, Rússia

latitud: 62-01N, longitud: 129-43E, altitud: 103 m

Observació

L'informe es va fer fa 47 minuts, a les 12:30 UTC
Vent 6 kt del Sud
Temperatura 7°C
Humitat 53%
Pressió 1010 hPa
Visibilitat 10 km o més
sense núvols per sota de 1500 mi sense presència de cumulonimbus.

METAR: UEEE 301230Z 17003MPS CAVOK 07/M02 Q1010 R23L/09//60 NOSIG RMK QFE749

Hora: 22:17 (13:17 UTC)

Pronòstic

L'informe es va fer fa 2 hores i 17 minuts, a les 11:00 UTC
Pronòstic vàlid del 30 a les 12 UTC al 31 a les 18 UTC
Vent 6 kt del Sud/Sud-Oest amb ràfegues de 16 kt
Visibilitat 10 km o més
Cel ennuvolat a una alçada de 2000 ft, Cumulonimbus.
Cel cobert a una alçada de 7000 ft

TAF: UEEE 301100Z 3012/3118 21003G08MPS 9999 BKN020CB OVC070

Observacions i pronòstics meteorològics de més de 4000 aeroports (METAR i TAF).

Les estacions disponibles són els punts grocs i vermells al mapa.

Posi el ratolí al punt desitjat per veure el nom de l'estació.

Feu clic per veure les observacions i els pronòstics meteorològics.

Per canviar el mapa: feu clic els botons verds amb una creu de color negre per apropar; al botó verd amb un guió per allunyar la imatge; o en les fletxes verdes per a mapes adjacents.


METAR-TAF: